createdAt,value
2022-10-10T00:04:14.073Z,101091.19
2022-10-10T00:09:16.912Z,101091.97
2022-10-10T00:14:19.774Z,101096.13
2022-10-10T00:19:22.663Z,101089.44
2022-10-10T00:24:25.403Z,101088.97
2022-10-10T00:29:28.200Z,101079.75
2022-10-10T00:34:33.070Z,101069.53
2022-10-10T00:39:35.881Z,101068.09
2022-10-10T00:44:40.567Z,101071.69
2022-10-10T00:49:44.598Z,101061.03
2022-10-10T00:54:47.429Z,101049.53
2022-10-10T00:59:50.469Z,101055.75
2022-10-10T01:04:53.235Z,101048.44
2022-10-10T01:09:58.826Z,101044.28
2022-10-10T01:15:10.496Z,101036.34
2022-10-10T01:20:13.295Z,101042.47
2022-10-10T01:25:38.004Z,101039.13
2022-10-10T01:30:41.517Z,101035.75
2022-10-10T01:36:03.949Z,101042.06
2022-10-10T01:41:23.977Z,101041.41
2022-10-10T01:46:27.471Z,101032.16
2022-10-10T01:51:42.246Z,101024.03
2022-10-10T01:56:54.059Z,101024.56
2022-10-10T02:02:06.173Z,101025.28
2022-10-10T02:07:21.831Z,101024.97
2022-10-10T02:12:26.631Z,101036.25
2022-10-10T02:17:30.563Z,101030.63
2022-10-10T02:22:34.206Z,101032.09
2022-10-10T02:27:58.553Z,101026.75
2022-10-10T02:33:04.526Z,101033.09
2022-10-10T02:38:09.300Z,101034.53
2022-10-10T02:43:12.947Z,101038.28
2022-10-10T02:48:15.776Z,101031.69
2022-10-10T02:53:18.517Z,101047.75
2022-10-10T02:58:21.476Z,101040.19
2022-10-10T03:03:25.647Z,101037.69
2022-10-10T03:08:27.655Z,101045.88
2022-10-10T03:13:30.959Z,101042.59
2022-10-10T03:18:33.768Z,101042.47
2022-10-10T03:23:36.588Z,101043.78
2022-10-10T03:28:39.481Z,101035.66
2022-10-10T03:33:42.307Z,101033.63
2022-10-10T03:38:45.046Z,101032.16
2022-10-10T03:43:47.898Z,101030.47
2022-10-10T03:48:50.862Z,101037.06
2022-10-10T03:53:54.671Z,101033.34
2022-10-10T03:59:00.697Z,101038.84
2022-10-10T04:04:05.158Z,101032.22
2022-10-10T04:09:08.041Z,101019.38
2022-10-10T04:14:11.306Z,101023.81
2022-10-10T04:19:14.875Z,101020.31
2022-10-10T04:24:17.640Z,101018.53
2022-10-10T04:29:20.735Z,101026.81
2022-10-10T04:34:23.599Z,101021.03
2022-10-10T04:39:26.576Z,101015.16
2022-10-10T04:44:29.504Z,101025.06
2022-10-10T04:49:32.371Z,101038.50
2022-10-10T04:54:35.414Z,101036.09
2022-10-10T04:59:38.247Z,101035.25
2022-10-10T05:04:41.065Z,101034.66
2022-10-10T05:09:43.631Z,101036.34
2022-10-10T05:14:48.264Z,101032.03
2022-10-10T05:19:51.722Z,101029.38
2022-10-10T05:24:54.557Z,101031.91
2022-10-10T05:29:57.376Z,101036.84
2022-10-10T05:35:00.518Z,101041.41
2022-10-10T05:40:03.709Z,101042.53
2022-10-10T05:45:07.170Z,101047.91
2022-10-10T05:50:22.845Z,101047.97
2022-10-10T05:55:25.855Z,101055.69
2022-10-10T06:00:28.736Z,101049.19
2022-10-10T06:05:31.638Z,101049.56
2022-10-10T06:10:35.851Z,101049.56
2022-10-10T06:15:38.750Z,101049.25
2022-10-10T06:20:41.568Z,101041.84
2022-10-10T06:25:44.323Z,101046.69
2022-10-10T06:30:48.772Z,101037.41
2022-10-10T06:35:51.752Z,101041.22
2022-10-10T06:40:58.475Z,101045.81
2022-10-10T06:46:03.717Z,101039.97
2022-10-10T06:51:14.429Z,101042.97
2022-10-10T06:56:26.377Z,101041.78
2022-10-10T07:01:30.259Z,101043.47
2022-10-10T07:06:34.952Z,101039.69
2022-10-10T07:11:38.081Z,101028.66
2022-10-10T07:16:41.627Z,101029.53
2022-10-10T07:21:44.480Z,101028.09
2022-10-10T07:26:47.066Z,101036.09
2022-10-10T07:31:50.263Z,101030.09
2022-10-10T07:36:53.201Z,101027.94
2022-10-10T07:41:55.988Z,101031.75
2022-10-10T07:46:58.847Z,101038.19
2022-10-10T07:52:01.936Z,101029.66
2022-10-10T07:57:04.718Z,101020.19
2022-10-10T08:02:07.603Z,101019.03
2022-10-10T08:07:10.584Z,101022.44
2022-10-10T08:12:13.364Z,101023.81
2022-10-10T08:17:16.311Z,101028.56
2022-10-10T08:22:19.130Z,101017.00
2022-10-10T08:27:22.051Z,101020.38
2022-10-10T08:32:25.637Z,101016.22
2022-10-10T08:37:32.706Z,101010.59
2022-10-10T08:42:53.398Z,100999.44
2022-10-10T08:48:04.006Z,101001.13
2022-10-10T08:53:12.189Z,100988.66
2022-10-10T08:58:21.034Z,100989.69
2022-10-10T09:03:26.801Z,100976.34
2022-10-10T09:08:41.771Z,100969.28
2022-10-10T09:14:02.763Z,100960.56
2022-10-10T09:19:08.914Z,100966.19
2022-10-10T09:24:26.122Z,100962.84
2022-10-10T09:29:32.249Z,100950.75
2022-10-10T09:35:27.951Z,100955.69
2022-10-10T09:40:34.623Z,100938.44
2022-10-10T09:45:41.844Z,100938.97
2022-10-10T09:50:45.018Z,100938.09
2022-10-10T09:55:48.343Z,100931.25
2022-10-10T10:00:51.279Z,100928.06
2022-10-10T10:06:01.389Z,100934.91
2022-10-10T10:11:04.990Z,100931.69
2022-10-10T10:16:14.273Z,100912.53
2022-10-10T10:21:20.028Z,100918.50
2022-10-10T10:26:27.443Z,100910.81
2022-10-10T10:31:42.559Z,100909.72
2022-10-10T10:36:58.089Z,100892.63
2022-10-10T10:42:22.798Z,100892.38
2022-10-10T10:47:28.564Z,100879.56
2022-10-10T10:52:57.764Z,100872.75
2022-10-10T10:59:05.746Z,100851.22
2022-10-10T11:05:16.475Z,100851.94
2022-10-10T11:09:49.718Z,100846.28
2022-10-10T11:15:15.325Z,100836.75
2022-10-10T11:20:21.646Z,100829.38
2022-10-10T11:25:36.653Z,100822.34
2022-10-10T11:30:51.549Z,100819.25
2022-10-10T11:36:07.056Z,100803.34
2022-10-10T11:41:15.964Z,100806.03
2022-10-10T11:46:26.011Z,100797.63
2022-10-10T11:51:39.435Z,100793.06
2022-10-10T11:56:45.709Z,100784.09
2022-10-10T12:01:52.105Z,100778.47
2022-10-10T12:07:01.053Z,100780.03
2022-10-10T12:12:12.007Z,100768.19
2022-10-10T12:17:29.721Z,100764.56
2022-10-10T12:22:32.608Z,100762.53
2022-10-10T12:27:44.656Z,100764.50
2022-10-10T12:32:50.391Z,100763.66
2022-10-10T12:38:15.748Z,100760.09
2022-10-10T12:43:23.437Z,100758.22
2022-10-10T12:48:26.306Z,100754.25
2022-10-10T12:53:33.787Z,100754.00
2022-10-10T12:58:41.069Z,100754.22
2022-10-10T13:03:48.657Z,100744.28
2022-10-10T13:08:53.693Z,100745.31
2022-10-10T13:13:57.289Z,100746.94
2022-10-10T13:19:00.500Z,100746.13
2022-10-10T13:24:06.056Z,100740.31
2022-10-10T13:29:36.654Z,100733.09
2022-10-10T13:34:43.789Z,100729.19
2022-10-10T13:39:47.956Z,100725.91
2022-10-10T13:44:53.642Z,100726.72
2022-10-10T13:49:57.278Z,100724.44
2022-10-10T13:55:26.170Z,100710.97
2022-10-10T14:00:32.702Z,100703.13
2022-10-10T14:05:36.031Z,100691.75
2022-10-10T14:10:38.812Z,100689.44
2022-10-10T14:15:41.659Z,100701.47
2022-10-10T14:20:45.773Z,100695.81
2022-10-10T14:25:49.267Z,100696.16
2022-10-10T14:30:52.501Z,100682.06
2022-10-10T14:35:56.372Z,100680.16
2022-10-10T14:40:59.394Z,100673.06
2022-10-10T14:46:02.495Z,100671.38
2022-10-10T14:51:34.435Z,100679.59
2022-10-10T14:57:06.824Z,100677.47
2022-10-10T15:01:52.228Z,100676.78
2022-10-10T15:07:12.507Z,100677.50
2022-10-10T15:12:16.431Z,100677.00
2022-10-10T15:17:19.280Z,100674.66
2022-10-10T15:22:22.151Z,100680.56
2022-10-10T15:27:28.005Z,100673.44
2022-10-10T15:32:30.697Z,100668.97
2022-10-10T15:37:33.481Z,100662.84
2022-10-10T15:42:36.361Z,100657.25
2022-10-10T15:47:45.514Z,100668.38
2022-10-10T15:52:49.505Z,100664.00
2022-10-10T15:57:52.164Z,100667.63
2022-10-10T16:02:54.981Z,100671.22
2022-10-10T16:07:57.827Z,100667.78
2022-10-10T16:13:00.641Z,100670.97
2022-10-10T16:18:03.592Z,100675.78
2022-10-10T16:23:06.391Z,100684.31
2022-10-10T16:28:09.123Z,100677.22
2022-10-10T16:33:12.159Z,100681.66
2022-10-10T16:38:15.022Z,100681.41
2022-10-10T16:43:17.992Z,100685.78
2022-10-10T16:48:21.543Z,100679.00
2022-10-10T16:53:24.321Z,100683.91
2022-10-10T16:58:27.763Z,100686.06
2022-10-10T17:03:32.021Z,100686.13
2022-10-10T17:08:35.125Z,100695.69
2022-10-10T17:13:38.639Z,100700.38
2022-10-10T17:18:41.516Z,100698.88
2022-10-10T17:23:44.825Z,100704.06
2022-10-10T17:28:53.945Z,100691.59
2022-10-10T17:33:57.571Z,100701.75
2022-10-10T17:39:00.480Z,100697.25
2022-10-10T17:44:05.284Z,100676.78
2022-10-10T17:49:12.406Z,100684.44
2022-10-10T17:54:15.271Z,100688.44
2022-10-10T17:59:18.090Z,100692.59
2022-10-10T18:04:20.894Z,100698.41
2022-10-10T18:09:23.737Z,100686.63
2022-10-10T18:14:26.538Z,100685.94
2022-10-10T18:19:29.413Z,100686.09
2022-10-10T18:24:32.307Z,100684.25
2022-10-10T18:29:35.374Z,100698.19
2022-10-10T18:34:38.335Z,100691.00
2022-10-10T18:39:42.315Z,100699.81
2022-10-10T18:44:45.511Z,100688.63
2022-10-10T18:49:48.737Z,100692.09
2022-10-10T18:54:51.599Z,100695.06
2022-10-10T18:59:55.208Z,100695.03
2022-10-10T19:04:58.194Z,100693.47
2022-10-10T19:10:00.995Z,100702.56
2022-10-10T19:15:04.011Z,100702.19
2022-10-10T19:20:07.309Z,100692.72
2022-10-10T19:25:10.268Z,100689.69
2022-10-10T19:30:13.829Z,100689.13
2022-10-10T19:35:16.646Z,100692.97
2022-10-10T19:40:19.552Z,100701.69
2022-10-10T19:45:22.540Z,100696.50
2022-10-10T19:50:25.246Z,100694.28
2022-10-10T19:55:28.038Z,100693.75
2022-10-10T20:00:31.245Z,100694.38
2022-10-10T20:05:33.803Z,100694.53
2022-10-10T20:10:40.214Z,100691.97
2022-10-10T20:15:44.203Z,100700.91
2022-10-10T20:20:50.420Z,100702.09
2022-10-10T20:25:53.311Z,100693.94
2022-10-10T20:30:56.315Z,100696.59
2022-10-10T20:36:01.876Z,100695.09
2022-10-10T20:41:06.994Z,100697.75
2022-10-10T20:46:11.607Z,100701.09
2022-10-10T20:51:14.434Z,100692.66
2022-10-10T20:56:18.449Z,100696.81
2022-10-10T21:01:23.904Z,100703.50
2022-10-10T21:06:29.207Z,100693.53
2022-10-10T21:11:32.632Z,100695.75
2022-10-10T21:16:38.226Z,100693.91
2022-10-10T21:21:41.008Z,100691.25
2022-10-10T21:26:45.524Z,100693.09
2022-10-10T21:31:48.986Z,100690.59
2022-10-10T21:36:51.901Z,100698.84
2022-10-10T21:41:54.739Z,100703.66
2022-10-10T21:46:57.698Z,100701.75
2022-10-10T21:52:00.474Z,100702.38
2022-10-10T21:57:03.418Z,100697.81
2022-10-10T22:02:09.246Z,100691.00
2022-10-10T22:07:12.136Z,100694.09
2022-10-10T22:12:16.584Z,100693.03
2022-10-10T22:17:19.424Z,100697.81
2022-10-10T22:22:22.206Z,100697.97
2022-10-10T22:27:25.040Z,100695.16
2022-10-10T22:32:27.924Z,100687.84
2022-10-10T22:37:30.774Z,100684.38
2022-10-10T22:42:33.550Z,100682.72
2022-10-10T22:47:36.420Z,100679.22
2022-10-10T22:52:39.367Z,100681.25
2022-10-10T22:57:42.160Z,100682.63
2022-10-10T23:02:45.039Z,100682.31
2022-10-10T23:07:47.851Z,100683.03
2022-10-10T23:12:50.631Z,100683.69
2022-10-10T23:17:53.499Z,100681.69
2022-10-10T23:22:56.445Z,100680.59
2022-10-10T23:27:59.249Z,100681.25
2022-10-10T23:33:02.627Z,100676.63
2022-10-10T23:38:05.758Z,100678.16
2022-10-10T23:43:10.670Z,100672.69
2022-10-10T23:48:13.763Z,100676.03
2022-10-10T23:53:16.554Z,100672.25
2022-10-10T23:58:19.426Z,100672.25
